Aérodrome :
LOGIN :

S'inscrire | Disclaimer

   EN    FR    IT 

 










Légende :    VFR   VFR Marginal   IFR   IFR Intensif   IFR Très Intensif
Visi : 
Plafond : 
>= 8 km
>= 3000ft
5 à 8 km
1000 à 3000 ft
1500m à 5 km
500 à 1000 ft
800 à 1500m
200 à 500 ft
< 800m
< 200 ft
Symboles :   Orages  Brouillard  Fortes neiges  Fortes précipitations  Vent > 20 kt
SIGMETs :   Divers  Orages  Givrage  Turbulence  Onde Orograph.  Cendres Volcan.







- Altitude de l'aérodrome : 141 ft
- Code IATA : SKS


EKSP - Srydstrup Vojens

DERNIER METAR :
  • 141250Z 24010KT 9999 -SHRA SCT015CB BKN040 03/01 Q0983

METARs EXPIRÉS :
  • 141220Z 25006KT 9999 FEW015TCU SCT050 03/01 Q0982
  • 141204Z 27011KT 9999 FEW015TCU SCT040 03/01 Q0983
  • 141150Z 25012G22KT 210V280 9999 -SHRASNGS FEW008 SCT015CB BKN023 03/02 Q0983 TEMPO 4000
  • 141120Z 24005KT 210V320 9999 SCT020TCU BKN040 04/02 Q0983 TEMPO 3000 SHRAGS SCT015CB
  • 141050Z 23008KT 9999 FEW020TCU 03/00 Q0982 TEMPO 3000 SHRAGS SCT015CB
  • 141020Z 25007KT 9999 FEW020TCU 03/01 Q0982 TEMPO 3000 SHRAGS SCT015CB
  • 140950Z 27010KT 9999 FEW020TCU 03/01 Q0982 TEMPO 3000 SHRAGS SCT015CB

TAF TAF EKSP
Valide du 14 à 12h jusqu'au 15 à 12h UTC


141125Z 1412/1512 26008KT 9999 BKN020
TEMPO 1412/1512 4000 SHRAGS BKN012 SCT015CB
Pas de NOTAMs connus pour ce terrain.



MET'MAP, la Météo Aéronautique d'un coup d'oeil ! - Copyright ORBIFLY Décembre 2007 - Disclaimer

ORBIFLY MET'MAP TEAM :

Programmation & Développement : Alexandra Zaïnal
Conception & Développement : Baudouin d'Aumeries
Co-Programmation & Développement : Marc-Olivier Méhu
Soutien technique & logistique : Manuel Goepfert

Contact : metmap@orbifly.com




SOURCES & CREDITS :

   NOAA